Time;durP1;ratioP1;P1;durP2;ratioP2;P2;SDS_P1;SDS_P2;PMS_P1;PMS_P2;Temp;Humidity;BMP_temperature;BMP_pressure;BME280_temperature;BME280_humidity;BME280_pressure;Samples;Min_cycle;Max_cycle;Signal;HPM_P1;HPM_P2
2023/10/04 00:02:09;;;;;;;1.20;0.70;;;18.00;47.40;;;;;;4986005;28;20182;-48
2023/10/04 00:04:35;;;;;;;1.10;0.52;;;18.00;47.60;;;;;;4994482;28;20299;-52
2023/10/04 00:07:04;;;;;;;1.00;0.50;;;18.10;47.60;;;;;;4994506;28;20263;-49
2023/10/04 00:09:33;;;;;;;1.30;0.93;;;18.00;47.40;;;;;;4994365;28;20921;-49
2023/10/04 00:11:59;;;;;;;1.25;0.70;;;18.00;47.50;;;;;;4994362;28;20179;-52
2023/10/04 00:14:26;;;;;;;1.70;0.50;;;18.00;47.60;;;;;;4994037;28;20542;-49
2023/10/04 00:16:54;;;;;;;6.45;0.77;;;18.00;47.40;;;;;;4994294;28;20824;-49
2023/10/04 00:19:20;;;;;;;1.35;0.80;;;18.00;47.10;;;;;;4994275;28;20649;-52
2023/10/04 00:21:46;;;;;;;1.87;0.70;;;18.10;47.30;;;;;;4994329;28;20269;-50
2023/10/04 00:24:13;;;;;;;2.13;0.90;;;18.00;47.50;;;;;;4994082;28;20414;-52
2023/10/04 00:26:41;;;;;;;1.10;0.70;;;18.00;47.20;;;;;;4994029;28;20183;-52
2023/10/04 00:29:08;;;;;;;1.20;0.82;;;18.00;46.90;;;;;;4991245;28;20287;-50
2023/10/04 00:31:36;;;;;;;1.40;0.80;;;18.00;46.90;;;;;;4974789;28;20180;-49
2023/10/04 00:34:03;;;;;;;1.20;0.70;;;18.00;47.20;;;;;;4982487;28;20191;-53
2023/10/04 00:36:29;;;;;;;3.38;1.08;;;18.00;47.10;;;;;;4979337;28;20270;-53
2023/10/04 00:38:55;;;;;;;2.70;1.02;;;18.00;47.40;;;;;;4985565;28;20198;-48
2023/10/04 00:41:22;;;;;;;1.30;0.70;;;18.00;47.10;;;;;;4993683;28;20175;-51
2023/10/04 00:43:51;;;;;;;1.40;0.63;;;17.90;47.20;;;;;;4993498;28;20171;-50
2023/10/04 00:46:21;;;;;;;2.45;0.70;;;17.90;47.10;;;;;;4993789;28;20234;-51
2023/10/04 00:48:49;;;;;;;1.20;0.65;;;17.90;47.10;;;;;;4993717;28;20252;-48
2023/10/04 00:51:16;;;;;;;1.10;0.55;;;17.90;47.20;;;;;;4993541;28;20210;-48
2023/10/04 00:53:44;;;;;;;1.05;0.68;;;17.80;47.30;;;;;;4993344;28;20179;-50
2023/10/04 00:56:10;;;;;;;1.25;0.80;;;17.80;47.10;;;;;;4993537;28;20189;-51
2023/10/04 00:58:37;;;;;;;1.10;0.65;;;17.70;47.20;;;;;;4993333;28;20210;-51
2023/10/04 01:01:04;;;;;;;1.33;0.98;;;17.70;47.50;;;;;;4993613;28;20175;-49
2023/10/04 01:03:36;;;;;;;1.60;0.75;;;17.70;47.40;;;;;;4987133;28;20259;-52
2023/10/04 01:06:03;;;;;;;1.48;0.85;;;17.70;47.60;;;;;;4991221;28;20192;-50
2023/10/04 01:08:29;;;;;;;1.67;0.90;;;17.70;47.60;;;;;;4993295;28;20201;-50
2023/10/04 01:10:55;;;;;;;1.30;0.70;;;17.60;47.30;;;;;;4992016;28;20733;-51
2023/10/04 01:13:22;;;;;;;1.30;0.87;;;17.60;47.40;;;;;;4992720;28;20430;-48
2023/10/04 01:15:51;;;;;;;1.83;0.90;;;17.60;47.40;;;;;;4993394;28;20455;-49
2023/10/04 01:18:17;;;;;;;1.20;0.80;;;17.60;47.10;;;;;;4989126;28;20724;-50
2023/10/04 01:20:43;;;;;;;1.33;1.00;;;17.60;47.00;;;;;;4973842;28;20176;-49
2023/10/04 01:23:12;;;;;;;2.00;1.38;;;17.70;47.20;;;;;;4973625;28;20175;-50
2023/10/04 01:25:39;;;;;;;1.80;1.05;;;17.70;47.20;;;;;;4973504;28;20180;-52
2023/10/04 01:28:14;;;;;;;1.50;1.10;;;17.70;47.10;;;;;;4973616;28;20188;-49
2023/10/04 01:30:48;;;;;;;2.30;1.00;;;17.70;46.90;;;;;;4973617;28;20654;-52
2023/10/04 01:33:18;;;;;;;1.50;0.90;;;17.70;46.90;;;;;;4973280;28;20190;-52
2023/10/04 01:35:49;;;;;;;1.92;1.13;;;17.70;47.00;;;;;;4973378;28;20184;-50
2023/10/04 01:38:16;;;;;;;1.35;0.85;;;17.70;46.70;;;;;;4973322;28;20688;-50
2023/10/04 01:40:47;;;;;;;2.85;1.33;;;17.60;46.90;;;;;;4973731;28;20570;-53
2023/10/04 01:43:16;;;;;;;1.20;0.75;;;17.60;46.90;;;;;;4973419;28;20172;-52
2023/10/04 01:45:50;;;;;;;1.40;0.70;;;17.50;47.00;;;;;;4973715;28;20211;-53
2023/10/04 01:48:16;;;;;;;1.42;1.00;;;17.40;46.80;;;;;;4973205;28;20610;-54
2023/10/04 01:50:42;;;;;;;1.30;1.10;;;17.40;47.10;;;;;;4981311;28;20241;-51
2023/10/04 01:53:09;;;;;;;1.30;1.02;;;17.40;47.30;;;;;;4991216;28;20176;-50
2023/10/04 01:55:36;;;;;;;1.75;0.95;;;17.40;47.30;;;;;;4992620;28;20179;-51
2023/10/04 01:58:02;;;;;;;1.88;1.15;;;17.40;47.10;;;;;;4992595;28;20191;-50
2023/10/04 02:00:28;;;;;;;2.33;2.10;;;17.40;47.40;;;;;;4992040;28;20523;-51
2023/10/04 02:02:54;;;;;;;1.60;1.13;;;17.40;47.00;;;;;;4984300;28;20180;-51
2023/10/04 02:05:31;;;;;;;2.30;1.38;;;17.40;47.00;;;;;;4954251;28;20181;-51
2023/10/04 02:07:57;;;;;;;1.10;0.40;;;17.30;47.10;;;;;;4954024;28;20717;-49
2023/10/04 02:10:24;;;;;;;1.30;0.93;;;17.30;47.30;;;;;;4953906;28;20204;-52
2023/10/04 02:12:56;;;;;;;1.50;1.25;;;17.40;47.40;;;;;;4953847;28;20174;-52
2023/10/04 02:15:23;;;;;;;1.80;0.95;;;17.30;47.30;;;;;;4953842;28;20185;-50
2023/10/04 02:17:49;;;;;;;2.47;1.15;;;17.40;47.20;;;;;;4953709;28;20259;-53
2023/10/04 02:20:35;;;;;;;1.85;1.00;;;17.40;47.20;;;;;;4972507;28;20282;-52
2023/10/04 02:23:03;;;;;;;3.25;1.00;;;17.30;47.30;;;;;;4972763;28;20180;-50
2023/10/04 02:25:29;;;;;;;1.58;0.77;;;17.30;47.20;;;;;;4973445;28;20187;-52
2023/10/04 02:28:09;;;;;;;1.50;1.00;;;17.20;47.10;;;;;;4984445;28;20200;-51
2023/10/04 02:30:40;;;;;;;2.05;1.30;;;17.20;47.10;;;;;;4984750;28;20178;-52
2023/10/04 02:33:13;;;;;;;1.92;1.17;;;17.20;46.80;;;;;;4994021;28;20187;-50
2023/10/04 02:35:47;;;;;;;4.38;1.23;;;17.20;47.10;;;;;;4996307;28;20190;-51
2023/10/04 02:38:23;;;;;;;2.20;1.60;;;17.10;47.10;;;;;;4995950;28;20199;-51
2023/10/04 02:40:50;;;;;;;2.08;1.10;;;17.10;47.30;;;;;;4996044;28;20189;-49
2023/10/04 02:43:17;;;;;;;2.70;0.95;;;17.10;47.20;;;;;;4996027;28;20246;-52
2023/10/04 02:45:43;;;;;;;1.90;0.90;;;17.00;47.20;;;;;;4996104;28;20184;-52
2023/10/04 02:48:10;;;;;;;2.70;1.37;;;17.00;47.10;;;;;;4995977;28;20191;-51
2023/10/04 02:50:43;;;;;;;1.75;0.95;;;17.10;47.40;;;;;;4995761;28;20417;-52
2023/10/04 02:53:12;;;;;;;1.55;0.82;;;17.10;47.80;;;;;;4995641;28;20210;-50
2023/10/04 02:55:39;;;;;;;1.90;1.30;;;17.10;47.20;;;;;;4995806;28;20572;-50
2023/10/04 02:58:06;;;;;;;1.48;1.38;;;17.10;47.40;;;;;;4995624;28;20196;-52
2023/10/04 03:00:33;;;;;;;1.30;0.93;;;17.10;47.60;;;;;;4995825;28;20167;-52
2023/10/04 03:02:59;;;;;;;1.23;0.82;;;17.10;47.60;;;;;;4996019;28;20225;-51
2023/10/04 03:05:29;;;;;;;1.80;1.20;;;17.20;47.40;;;;;;4995866;28;20315;-53
2023/10/04 03:07:55;;;;;;;1.77;1.23;;;17.20;47.10;;;;;;4995772;28;20704;-51
2023/10/04 03:10:24;;;;;;;4.50;1.45;;;17.30;47.20;;;;;;4995336;28;20590;-49
2023/10/04 03:12:56;;;;;;;1.80;1.25;;;17.20;46.50;;;;;;4996858;28;20183;-50
2023/10/04 03:15:23;;;;;;;1.70;1.10;;;17.20;46.60;;;;;;4996477;28;20202;-50
2023/10/04 03:17:53;;;;;;;1.88;1.38;;;17.20;46.70;;;;;;4996080;28;20602;-49
2023/10/04 03:20:29;;;;;;;3.83;1.23;;;17.10;46.70;;;;;;4996127;28;20195;-51
2023/10/04 03:22:55;;;;;;;2.20;1.35;;;17.00;46.70;;;;;;4995579;28;20179;-48
2023/10/04 03:25:26;;;;;;;2.00;1.20;;;17.00;46.50;;;;;;4994210;28;20178;-48
2023/10/04 03:27:52;;;;;;;1.80;1.30;;;16.90;46.70;;;;;;4995163;28;20219;-51
2023/10/04 03:30:18;;;;;;;1.38;0.90;;;16.90;47.20;;;;;;4996175;28;20175;-51
2023/10/04 03:32:53;;;;;;;1.90;0.93;;;16.90;46.90;;;;;;4996156;28;20262;-50
2023/10/04 03:35:22;;;;;;;1.80;1.50;;;17.00;46.60;;;;;;4996492;28;20175;-53
2023/10/04 03:38:09;;;;;;;1.35;1.00;;;17.00;46.60;;;;;;4995903;28;20290;-54
2023/10/04 03:40:35;;;;;;;1.67;0.95;;;17.00;46.30;;;;;;4995077;28;20700;-51
2023/10/04 03:43:05;;;;;;;2.20;1.20;;;16.90;46.50;;;;;;4995185;28;20184;-53
2023/10/04 03:45:41;;;;;;;2.30;1.50;;;16.90;46.50;;;;;;4995281;28;20464;-54
2023/10/04 03:48:19;;;;;;;1.67;0.90;;;16.90;46.70;;;;;;4994995;28;20206;-49
2023/10/04 03:50:50;;;;;;;1.77;1.05;;;16.90;46.60;;;;;;4996178;28;20175;-49
2023/10/04 03:53:17;;;;;;;2.08;1.35;;;17.00;46.60;;;;;;4994683;28;20175;-51
2023/10/04 03:55:43;;;;;;;1.48;1.13;;;16.90;46.60;;;;;;4994649;28;20638;-50
2023/10/04 03:58:10;;;;;;;1.63;1.15;;;16.90;46.50;;;;;;4994421;28;20203;-49
2023/10/04 04:00:37;;;;;;;1.50;1.00;;;17.00;46.20;;;;;;4995659;28;20266;-51
2023/10/04 04:03:03;;;;;;;1.33;0.70;;;17.00;46.30;;;;;;4994382;28;20172;-51
2023/10/04 04:05:30;;;;;;;1.50;1.00;;;17.00;46.60;;;;;;4994893;28;20273;-51
2023/10/04 04:07:57;;;;;;;1.40;0.90;;;17.00;46.50;;;;;;4994756;28;20274;-54
2023/10/04 04:10:24;;;;;;;1.55;1.05;;;16.90;46.30;;;;;;4994099;28;20226;-51
2023/10/04 04:12:50;;;;;;;1.90;1.40;;;16.90;46.60;;;;;;4994563;28;20541;-50
2023/10/04 04:15:17;;;;;;;1.60;1.10;;;16.90;46.30;;;;;;4994380;28;20246;-51
2023/10/04 04:17:46;;;;;;;3.17;1.25;;;16.90;46.60;;;;;;4994360;28;20523;-53
2023/10/04 04:20:19;;;;;;;2.28;1.40;;;16.90;46.60;;;;;;4994338;28;20221;-52
2023/10/04 04:22:51;;;;;;;1.50;1.20;;;16.90;46.60;;;;;;4994273;28;20183;-52
2023/10/04 04:25:23;;;;;;;2.63;1.60;;;16.90;46.20;;;;;;4994105;28;20221;-51
2023/10/04 04:27:51;;;;;;;2.58;1.60;;;16.90;46.20;;;;;;4993827;28;20214;-50
2023/10/04 04:30:23;;;;;;;1.40;0.88;;;16.90;46.20;;;;;;4993976;28;20182;-50
2023/10/04 04:32:53;;;;;;;1.75;1.13;;;16.90;46.10;;;;;;4993701;28;20179;-52
2023/10/04 04:40:49;;;;;;;2.50;1.35;;;16.90;46.10;;;;;;4993884;28;20167;-49
2023/10/04 04:45:51;;;;;;;3.85;1.63;;;16.80;46.40;;;;;;4993910;28;20182;-51
2023/10/04 04:48:25;;;;;;;1.63;1.00;;;16.80;46.10;;;;;;4992958;28;20253;-49
2023/10/04 04:51:12;;;;;;;1.85;1.40;;;16.80;46.20;;;;;;4993597;28;20164;-49
2023/10/04 04:53:42;;;;;;;2.03;1.33;;;16.80;46.40;;;;;;4994520;28;20183;-48
2023/10/04 04:56:13;;;;;;;1.70;0.88;;;16.90;46.40;;;;;;4995017;28;20267;-52
2023/10/04 04:58:39;;;;;;;2.65;1.50;;;16.80;46.00;;;;;;4993331;28;20195;-50
2023/10/04 05:01:09;;;;;;;2.20;1.70;;;16.80;46.20;;;;;;4993330;28;20238;-50
2023/10/04 05:03:35;;;;;;;1.73;1.10;;;16.90;46.20;;;;;;4993166;28;20195;-50
2023/10/04 05:06:01;;;;;;;1.85;1.02;;;16.90;46.20;;;;;;4994213;28;20167;-54
2023/10/04 05:08:26;;;;;;;7.40;1.37;;;16.90;45.60;;;;;;4994254;28;20214;-51
2023/10/04 05:10:55;;;;;;;1.60;1.10;;;16.80;45.90;;;;;;4994429;28;20224;-49
2023/10/04 05:13:21;;;;;;;3.80;2.15;;;16.80;45.90;;;;;;4992975;28;20179;-51
2023/10/04 05:15:49;;;;;;;2.00;1.07;;;16.80;46.50;;;;;;4993212;28;20186;-52
2023/10/04 05:18:17;;;;;;;2.65;1.05;;;16.80;46.00;;;;;;4993136;28;20211;-48
2023/10/04 05:20:51;;;;;;;2.60;1.65;;;16.80;45.70;;;;;;4993021;28;20273;-49
2023/10/04 05:23:18;;;;;;;4.20;1.55;;;16.80;46.00;;;;;;4993050;28;20178;-51
2023/10/04 05:25:44;;;;;;;1.67;1.42;;;16.80;46.00;;;;;;4992897;28;20171;-49
2023/10/04 05:28:11;;;;;;;1.63;1.27;;;16.80;46.00;;;;;;4992960;28;20686;-51
2023/10/04 05:30:39;;;;;;;1.63;1.23;;;16.80;46.50;;;;;;4992897;28;20658;-51
2023/10/04 05:33:08;;;;;;;1.30;0.75;;;17.10;46.10;;;;;;4992685;28;20233;-49
2023/10/04 05:35:35;;;;;;;4.13;0.82;;;16.80;46.00;;;;;;4992897;28;20681;-51
2023/10/04 05:38:03;;;;;;;1.10;0.63;;;16.90;46.00;;;;;;4992970;28;20191;-52
2023/10/04 05:40:38;;;;;;;1.23;0.88;;;16.80;45.80;;;;;;4992715;28;20211;-49
2023/10/04 05:43:05;;;;;;;1.35;0.95;;;16.80;46.00;;;;;;4992545;28;20175;-50
2023/10/04 05:45:32;;;;;;;2.25;1.70;;;16.90;46.50;;;;;;4992762;28;20174;-48
2023/10/04 05:47:59;;;;;;;4.20;1.40;;;16.90;46.00;;;;;;4992558;28;20194;-49
2023/10/04 05:50:26;;;;;;;2.20;1.00;;;16.90;46.70;;;;;;4992830;28;20270;-51
2023/10/04 05:52:54;;;;;;;1.73;1.42;;;16.90;46.00;;;;;;4992474;28;20186;-51
2023/10/04 05:55:21;;;;;;;2.70;1.60;;;16.90;46.00;;;;;;4992626;28;20177;-49
2023/10/04 05:57:47;;;;;;;1.88;1.30;;;16.90;46.40;;;;;;4992611;28;20181;-50
2023/10/04 06:00:33;;;;;;;1.63;1.08;;;17.00;46.20;;;;;;4992376;28;20215;-51
2023/10/04 06:03:13;;;;;;;2.60;1.20;;;17.10;46.10;;;;;;4993763;28;20254;-50
2023/10/04 06:05:40;;;;;;;1.75;1.20;;;17.20;45.70;;;;;;4992876;28;20262;-50
2023/10/04 06:08:15;;;;;;;2.13;1.70;;;17.30;46.20;;;;;;4993852;28;20187;-50
2023/10/04 06:10:42;;;;;;;1.30;1.15;;;17.40;46.30;;;;;;4994068;28;20178;-52
2023/10/04 06:13:11;;;;;;;1.20;1.00;;;17.40;45.40;;;;;;4994291;28;20176;-50
2023/10/04 06:15:46;;;;;;;1.80;1.10;;;17.40;45.80;;;;;;4992728;28;20164;-49
2023/10/04 06:18:12;;;;;;;7.72;1.80;;;17.40;44.90;;;;;;4992873;28;20222;-49
2023/10/04 06:20:40;;;;;;;7.90;1.25;;;17.40;44.80;;;;;;4993809;28;20527;-53
2023/10/04 06:23:17;;;;;;;11.70;2.05;;;17.40;43.60;;;;;;4992203;28;20182;-52
2023/10/04 06:25:47;;;;;;;1.20;0.70;;;17.40;44.40;;;;;;4993025;28;20178;-50
2023/10/04 06:28:13;;;;;;;1.85;0.98;;;17.40;45.20;;;;;;4994315;28;20310;-49
2023/10/04 06:30:41;;;;;;;1.15;0.70;;;17.40;45.40;;;;;;4992953;28;20171;-53
2023/10/04 06:33:09;;;;;;;2.03;1.35;;;17.40;45.30;;;;;;4993294;28;20171;-52
2023/10/04 06:35:37;;;;;;;2.85;1.30;;;17.40;45.50;;;;;;4992338;28;20570;-50
2023/10/04 06:38:08;;;;;;;15.43;2.70;;;17.40;44.20;;;;;;4992096;28;20715;-51
2023/10/04 06:40:35;;;;;;;6.93;1.45;;;17.50;43.70;;;;;;4993695;28;20821;-52
2023/10/04 06:43:05;;;;;;;11.05;1.98;;;17.50;44.10;;;;;;4992139;28;20186;-48
2023/10/04 06:45:32;;;;;;;12.48;2.40;;;;;;;;;;4992315;28;20178;-52
2023/10/04 06:47:59;;;;;;;1.80;1.40;;;17.60;44.20;;;;;;4992321;28;20194;-50
2023/10/04 06:50:38;;;;;;;1.52;0.70;;;17.70;45.70;;;;;;4993895;28;20183;-48
2023/10/04 06:53:04;;;;;;;2.20;1.45;;;17.70;45.10;;;;;;4993564;28;20190;-50
2023/10/04 06:55:32;;;;;;;2.22;1.35;;;17.80;44.70;;;;;;4993121;28;20658;-48
2023/10/04 06:57:58;;;;;;;1.05;0.47;;;17.80;44.10;;;;;;4992394;28;20203;-51
2023/10/04 07:00:29;;;;;;;3.20;0.85;;;17.90;44.60;;;;;;4992393;28;20238;-52
2023/10/04 07:02:59;;;;;;;2.15;1.42;;;18.00;43.70;;;;;;4991769;28;20230;-50
2023/10/04 07:05:35;;;;;;;1.85;0.95;;;18.10;44.50;;;;;;4993049;28;20179;-53
2023/10/04 07:08:03;;;;;;;1.98;1.08;;;18.10;44.20;;;;;;4992343;28;20195;-56
2023/10/04 07:10:29;;;;;;;1.55;0.90;;;18.10;45.60;;;;;;4992407;28;20258;-55
2023/10/04 07:13:00;;;;;;;1.10;0.50;;;18.10;44.80;;;;;;4994871;28;20179;-50
2023/10/04 07:15:36;;;;;;;2.25;1.95;;;18.00;44.40;;;;;;4995624;28;20176;-52
2023/10/04 07:18:06;;;;;;;5.72;1.92;;;18.10;44.40;;;;;;4996766;28;20257;-50
2023/10/04 07:20:33;;;;;;;7.22;2.45;;;18.10;45.50;;;;;;4996165;28;20207;-50
2023/10/04 07:23:03;;;;;;;6.53;1.85;;;18.20;44.10;;;;;;4996529;28;20534;-52
2023/10/04 07:25:34;;;;;;;11.25;1.83;;;18.30;43.90;;;;;;4995131;28;20577;-53
2023/10/04 07:28:02;;;;;;;5.45;1.25;;;18.30;44.00;;;;;;4995514;28;20199;-50
2023/10/04 07:30:33;;;;;;;14.32;2.15;;;18.30;43.60;;;;;;4995144;28;20179;-51
2023/10/04 07:32:59;;;;;;;11.05;2.15;;;18.40;43.20;;;;;;4995344;28;20179;-52
2023/10/04 07:35:27;;;;;;;10.25;1.95;;;18.30;43.00;;;;;;4997081;28;20640;-55
2023/10/04 07:37:54;;;;;;;10.63;2.15;;;18.30;43.00;;;;;;4997113;28;20221;-52
2023/10/04 07:40:23;;;;;;;12.60;1.83;;;18.40;43.60;;;;;;4996760;28;20203;-54
2023/10/04 07:42:53;;;;;;;27.83;4.75;;;18.40;42.50;;;;;;4996429;28;20164;-54
2023/10/04 07:45:23;;;;;;;11.55;1.80;;;18.30;43.30;;;;;;4996099;28;20179;-52
2023/10/04 07:47:49;;;;;;;9.85;1.88;;;;;;;;;;4996447;28;20827;-50
2023/10/04 07:50:25;;;;;;;16.17;2.63;;;18.40;43.20;;;;;;4995014;28;20183;-53
2023/10/04 07:53:00;;;;;;;18.30;4.03;;;18.40;43.50;;;;;;4994720;28;20179;-52
2023/10/04 07:55:26;;;;;;;8.95;1.52;;;18.40;43.30;;;;;;4995098;28;20179;-51
2023/10/04 07:57:53;;;;;;;27.80;2.53;;;18.50;43.70;;;;;;4994829;28;20543;-53
2023/10/04 08:00:20;;;;;;;11.13;2.15;;;18.60;43.80;;;;;;4994437;28;20207;-51
2023/10/04 08:02:49;;;;;;;33.88;5.75;;;;;;;;;;4995733;28;20234;-50
2023/10/04 08:05:24;;;;;;;10.80;1.77;;;;;;;;;;4996550;28;20180;-52
2023/10/04 08:07:55;;;;;;;12.40;2.00;;;;;;;;;;4994660;28;20538;-50
2023/10/04 08:10:23;;;;;;;13.07;2.05;;;18.70;42.90;;;;;;4994881;28;20208;-51
2023/10/04 08:12:53;;;;;;;12.23;2.35;;;18.70;43.00;;;;;;4996560;28;20175;-48
2023/10/04 08:15:21;;;;;;;7.95;1.55;;;18.70;42.20;;;;;;4996331;28;20168;-50
2023/10/04 08:17:52;;;;;;;10.73;1.73;;;18.70;42.80;;;;;;4995430;28;20171;-54
2023/10/04 08:20:19;;;;;;;12.30;2.15;;;18.70;43.40;;;;;;4994539;28;20211;-50
2023/10/04 08:22:45;;;;;;;23.67;3.33;;;18.70;42.60;;;;;;4993523;28;20203;-53
2023/10/04 08:25:13;;;;;;;11.23;1.65;;;;;;;;;;4993792;28;20215;-50
2023/10/04 08:27:40;;;;;;;15.57;2.22;;;18.90;43.50;;;;;;4993920;28;20187;-53
2023/10/04 08:30:07;;;;;;;22.02;2.28;;;;;;;;;;4993927;28;20594;-50
2023/10/04 08:32:33;;;;;;;10.43;1.50;;;18.90;42.80;;;;;;4992654;28;20207;-51
2023/10/04 08:35:00;;;;;;;12.27;1.85;;;19.00;42.50;;;;;;4993752;28;20183;-52
2023/10/04 08:37:29;;;;;;;6.90;1.42;;;19.00;42.80;;;;;;4993807;28;20266;-48
2023/10/04 08:39:55;;;;;;;17.23;2.35;;;19.10;42.70;;;;;;4993725;28;20217;-48
2023/10/04 08:42:23;;;;;;;1.42;0.65;;;19.20;42.60;;;;;;4993820;28;20171;-51
2023/10/04 08:44:50;;;;;;;1.75;1.35;;;19.20;43.50;;;;;;4993517;28;20271;-51
2023/10/04 08:47:16;;;;;;;1.85;1.33;;;19.30;43.30;;;;;;4995050;28;20176;-51
2023/10/04 08:49:55;;;;;;;1.73;0.80;;;;;;;;;;4994817;28;20191;-51
2023/10/04 08:52:37;;;;;;;6.88;1.92;;;19.60;42.80;;;;;;4994649;28;20210;-50
2023/10/04 08:55:07;;;;;;;6.35;2.00;;;19.70;43.40;;;;;;4994376;28;20685;-52
2023/10/04 08:57:39;;;;;;;2.47;0.98;;;19.80;43.80;;;;;;4993347;28;20183;-50
2023/10/04 09:00:23;;;;;;;2.15;1.10;;;19.90;42.50;;;;;;4994251;28;20203;-49
2023/10/04 09:02:50;;;;;;;1.40;0.77;;;19.80;41.10;;;;;;4993377;28;20686;-52
2023/10/04 09:05:28;;;;;;;13.27;2.42;;;;;;;;;;4993328;28;20187;-50
2023/10/04 09:07:55;;;;;;;14.38;1.92;;;20.10;41.40;;;;;;4993189;28;20234;-50
2023/10/04 09:10:23;;;;;;;2.78;1.35;;;20.10;40.70;;;;;;4994296;28;20363;-53
2023/10/04 09:12:49;;;;;;;9.10;1.42;;;20.10;40.40;;;;;;4993295;28;20183;-51
2023/10/04 09:15:15;;;;;;;1.60;0.93;;;20.00;41.70;;;;;;4993246;28;20179;-51
2023/10/04 09:17:55;;;;;;;1.63;1.00;;;20.00;41.80;;;;;;4993190;28;20793;-53
2023/10/04 09:20:29;;;;;;;4.82;1.70;;;20.00;39.80;;;;;;4993022;28;20446;-51
2023/10/04 09:22:54;;;;;;;14.30;1.98;;;19.90;39.90;;;;;;4993063;28;20211;-53
2023/10/04 09:25:20;;;;;;;12.07;1.53;;;20.00;40.50;;;;;;4993007;28;20214;-49
2023/10/04 09:27:56;;;;;;;13.55;1.73;;;20.00;40.50;;;;;;4992844;28;20190;-53
2023/10/04 09:30:26;;;;;;;12.25;1.48;;;20.10;40.70;;;;;;4992889;28;20813;-51
2023/10/04 09:32:52;;;;;;;24.40;3.28;;;;;;;;;;4992841;28;20797;-54
2023/10/04 09:35:21;;;;;;;16.33;2.78;;;20.30;40.20;;;;;;4991454;28;20746;-50
2023/10/04 09:37:49;;;;;;;12.10;1.30;;;;;;;;;;4992936;28;20642;-50
2023/10/04 09:40:17;;;;;;;51.97;3.47;;;20.40;39.10;;;;;;4992791;28;20223;-52
2023/10/04 09:42:56;;;;;;;3.63;1.55;;;20.40;39.80;;;;;;4992680;28;20180;-52
2023/10/04 09:45:24;;;;;;;18.90;2.38;;;;;;;;;;4992831;28;20171;-51
2023/10/04 09:47:54;;;;;;;2.45;0.90;;;20.30;39.40;;;;;;4992745;28;20670;-50
2023/10/04 09:50:22;;;;;;;4.25;1.35;;;20.30;40.20;;;;;;4993238;28;20672;-53
2023/10/04 09:52:49;;;;;;;4.35;1.83;;;20.20;40.40;;;;;;4992648;28;20572;-51
2023/10/04 09:55:15;;;;;;;2.38;1.35;;;20.30;40.30;;;;;;4992849;28;20546;-50
2023/10/04 09:57:44;;;;;;;1.35;0.82;;;20.30;40.20;;;;;;4992549;28;20183;-51
2023/10/04 10:00:22;;;;;;;9.40;1.00;;;20.20;39.90;;;;;;4992685;28;20297;-49
2023/10/04 10:03:00;;;;;;;2.85;1.58;;;20.20;40.40;;;;;;4992825;28;20187;-51
2023/10/04 10:05:34;;;;;;;1.15;0.70;;;20.30;40.50;;;;;;4993075;28;20172;-50
2023/10/04 10:08:08;;;;;;;1.30;0.87;;;20.30;41.40;;;;;;4992957;28;20195;-49
2023/10/04 10:10:41;;;;;;;5.10;1.60;;;20.30;40.30;;;;;;4993326;28;20411;-51
2023/10/04 10:13:09;;;;;;;1.40;0.77;;;20.40;41.00;;;;;;4992674;28;20673;-49
2023/10/04 10:15:37;;;;;;;2.15;1.30;;;20.30;41.70;;;;;;4976010;28;20270;-52
2023/10/04 10:18:04;;;;;;;6.35;1.52;;;20.50;39.70;;;;;;4992854;28;20282;-52
2023/10/04 10:20:31;;;;;;;18.85;2.35;;;;;;;;;;4992539;28;20261;-51
2023/10/04 10:22:59;;;;;;;23.73;3.63;;;20.30;38.90;;;;;;4992211;28;20526;-53
2023/10/04 10:25:26;;;;;;;14.95;1.90;;;20.30;38.60;;;;;;4992610;28;20585;-49
2023/10/04 10:28:03;;;;;;;20.95;2.15;;;;;;;;;;4992260;28;20293;-53
2023/10/04 10:30:32;;;;;;;15.10;2.00;;;20.30;38.60;;;;;;4992353;28;20526;-50
2023/10/04 10:32:59;;;;;;;20.02;2.45;;;;;;;;;;4993315;28;20813;-49
2023/10/04 10:35:53;;;;;;;14.73;2.13;;;20.40;39.70;;;;;;4992189;28;20176;-51
2023/10/04 10:38:37;;;;;;;16.30;1.85;;;;;;;;;;4993577;28;20203;-50
2023/10/04 10:41:05;;;;;;;32.95;3.25;;;;;;;;;;4992270;28;20195;-49
2023/10/04 10:43:31;;;;;;;17.73;2.85;;;;;;;;;;4992220;28;20547;-49
2023/10/04 10:45:59;;;;;;;19.23;2.65;;;20.90;38.60;;;;;;4992230;28;20178;-52
2023/10/04 10:48:33;;;;;;;15.47;1.83;;;20.90;39.10;;;;;;4996194;28;20230;-50
2023/10/04 10:51:00;;;;;;;14.65;1.88;;;20.90;38.60;;;;;;4997347;28;20441;-53
2023/10/04 10:53:26;;;;;;;13.47;1.80;;;20.90;38.60;;;;;;4997161;28;20171;-55
2023/10/04 10:55:54;;;;;;;16.48;1.90;;;20.90;39.40;;;;;;4997659;28;20406;-50
2023/10/04 10:58:20;;;;;;;19.75;2.13;;;;;;;;;;4996507;28;20700;-49
2023/10/04 11:00:46;;;;;;;20.00;2.33;;;21.10;39.30;;;;;;4995679;28;20177;-48
2023/10/04 11:03:13;;;;;;;15.60;1.67;;;21.10;38.70;;;;;;4995492;28;20176;-51
2023/10/04 11:05:40;;;;;;;16.43;1.90;;;21.10;38.20;;;;;;4995555;28;20176;-53
2023/10/04 11:08:12;;;;;;;2.17;1.38;;;21.20;38.90;;;;;;4995479;28;20510;-49
2023/10/04 11:10:39;;;;;;;4.07;1.60;;;21.20;38.50;;;;;;4995453;28;20189;-53
2023/10/04 11:13:08;;;;;;;3.80;1.67;;;21.20;39.10;;;;;;4995268;28;20202;-51
2023/10/04 11:15:36;;;;;;;3.53;1.80;;;21.30;38.90;;;;;;4995615;28;20437;-50
2023/10/04 11:18:02;;;;;;;2.85;1.27;;;21.40;39.00;;;;;;4995390;28;20793;-51
2023/10/04 11:20:31;;;;;;;3.07;1.80;;;21.40;38.80;;;;;;4994004;28;20302;-50
2023/10/04 11:22:57;;;;;;;1.60;0.53;;;21.40;38.40;;;;;;4995144;28;20418;-50
2023/10/04 11:25:23;;;;;;;9.83;2.73;;;21.50;38.40;;;;;;4995175;28;20781;-50
2023/10/04 11:27:51;;;;;;;12.67;1.80;;;21.50;38.60;;;;;;4995119;28;20462;-52
2023/10/04 11:30:18;;;;;;;18.43;2.30;;;;;;;;;;4995291;28;20782;-50
2023/10/04 11:32:46;;;;;;;21.30;2.67;;;21.40;35.80;;;;;;4995051;28;20421;-48
2023/10/04 11:35:15;;;;;;;20.93;2.27;;;21.30;37.20;;;;;;4995064;28;21163;-53
2023/10/04 11:37:41;;;;;;;16.40;2.40;;;;;;;;;;4994950;28;20833;-52
2023/10/04 11:40:12;;;;;;;14.43;2.53;;;21.50;38.30;;;;;;4995110;28;20541;-50
2023/10/04 11:42:39;;;;;;;10.80;1.50;;;21.60;38.10;;;;;;4995149;28;20437;-52
2023/10/04 11:45:24;;;;;;;17.80;2.30;;;;;;;;;;4994857;28;20450;-49
2023/10/04 11:48:05;;;;;;;5.30;1.13;;;22.00;37.50;;;;;;4994866;28;20431;-50
2023/10/04 11:50:45;;;;;;;17.73;2.10;;;;;;;;;;4994758;28;20446;-52
2023/10/04 11:53:14;;;;;;;17.97;3.07;;;22.40;35.80;;;;;;4994615;28;20406;-49
2023/10/04 11:55:41;;;;;;;20.13;2.80;;;22.40;35.80;;;;;;4994740;28;20411;-49
2023/10/04 11:58:07;;;;;;;22.83;2.23;;;22.40;36.30;;;;;;4994280;28;20436;-49
2023/10/04 12:00:33;;;;;;;15.87;1.70;;;22.40;36.10;;;;;;4994502;28;20462;-52
2023/10/04 12:02:59;;;;;;;24.97;2.50;;;22.40;35.40;;;;;;4994234;28;21115;-50
2023/10/04 12:05:26;;;;;;;12.80;1.53;;;22.40;36.90;;;;;;4994500;28;20183;-50
2023/10/04 12:07:54;;;;;;;19.80;2.60;;;22.40;36.40;;;;;;4994394;28;20426;-49
2023/10/04 12:10:21;;;;;;;19.77;2.13;;;;;;;;;;4994488;28;20415;-52
2023/10/04 12:12:47;;;;;;;52.50;4.43;;;22.20;36.40;;;;;;4994230;28;20813;-50
2023/10/04 12:15:14;;;;;;;15.97;1.70;;;22.10;36.90;;;;;;4993085;28;20424;-50
2023/10/04 12:17:40;;;;;;;17.50;2.63;;;22.10;37.40;;;;;;4994103;28;20183;-53
2023/10/04 12:20:11;;;;;;;20.63;2.40;;;22.00;37.20;;;;;;4994068;28;20523;-53
2023/10/04 12:22:37;;;;;;;20.30;1.80;;;21.90;37.40;;;;;;4994227;28;20183;-50
2023/10/04 12:25:04;;;;;;;14.30;1.57;;;21.80;36.20;;;;;;4994071;28;20438;-50
2023/10/04 12:27:30;;;;;;;18.00;1.80;;;21.80;37.40;;;;;;4994022;28;20430;-49
2023/10/04 12:29:57;;;;;;;2.30;1.30;;;21.80;38.00;;;;;;4993983;28;20774;-52
2023/10/04 12:32:23;;;;;;;12.70;1.57;;;;;;;;;;4993839;28;20750;-51
2023/10/04 12:34:49;;;;;;;9.73;1.20;;;;;;;;;;4993856;28;20402;-53
2023/10/04 12:37:15;;;;;;;13.93;1.43;;;;;;;;;;4994071;28;20411;-50
2023/10/04 12:39:43;;;;;;;16.00;1.97;;;22.30;34.10;;;;;;4993642;28;20451;-51
2023/10/04 12:42:09;;;;;;;14.37;1.63;;;22.10;34.60;;;;;;4993794;28;20898;-51
2023/10/04 12:44:41;;;;;;;2.07;1.33;;;22.10;34.80;;;;;;4993641;28;20419;-50
2023/10/04 12:47:08;;;;;;;11.90;1.50;;;21.90;34.40;;;;;;4993716;28;20939;-50
2023/10/04 12:49:34;;;;;;;23.10;2.17;;;21.90;35.60;;;;;;4993563;28;20952;-53
2023/10/04 12:52:00;;;;;;;19.50;2.03;;;21.80;35.70;;;;;;4993579;28;20952;-51
2023/10/04 12:54:28;;;;;;;26.03;2.90;;;21.80;35.50;;;;;;4993477;28;20411;-50
2023/10/04 12:56:55;;;;;;;23.87;2.43;;;21.70;35.90;;;;;;4993547;28;20176;-51
2023/10/04 12:59:23;;;;;;;14.70;2.30;;;;;;;;;;4993456;28;20482;-50
2023/10/04 13:01:52;;;;;;;18.47;1.70;;;;;;;;;;4993394;28;20403;-50
2023/10/04 13:04:18;;;;;;;20.60;2.53;;;21.80;35.70;;;;;;4993392;28;20410;-51
2023/10/04 13:06:43;;;;;;;20.80;1.77;;;21.80;36.00;;;;;;4993448;28;20410;-52
2023/10/04 13:09:15;;;;;;;23.00;2.27;;;;;;;;;;4992667;28;20678;-51
2023/10/04 13:11:41;;;;;;;16.30;1.60;;;;;;;;;;4993333;28;20218;-49